sensor_id;sensor_type;location;lat;lon;timestamp;temperature;humidity
59025;DHT22;44806;48.008;13.666;2023-02-15T00:01:21;0.80;99.90
59025;DHT22;44806;48.008;13.666;2023-02-15T00:04:02;0.90;99.90
59025;DHT22;44806;48.008;13.666;2023-02-15T00:06:33;0.90;99.90
59025;DHT22;44806;48.008;13.666;2023-02-15T00:09:09;1.00;99.90
59025;DHT22;44806;48.008;13.666;2023-02-15T00:11:41;1.00;99.90
59025;DHT22;44806;48.008;13.666;2023-02-15T00:14:22;0.90;99.90
59025;DHT22;44806;48.008;13.666;2023-02-15T00:17:00;1.00;99.90
59025;DHT22;44806;48.008;13.666;2023-02-15T00:19:28;1.10;99.90
59025;DHT22;44806;48.008;13.666;2023-02-15T00:22:08;1.10;99.90
59025;DHT22;44806;48.008;13.666;2023-02-15T00:24:41;1.20;99.90
59025;DHT22;44806;48.008;13.666;2023-02-15T00:27:16;1.10;99.90
59025;DHT22;44806;48.008;13.666;2023-02-15T00:29:51;1.10;99.90
59025;DHT22;44806;48.008;13.666;2023-02-15T00:32:23;1.20;99.90
59025;DHT22;44806;48.008;13.666;2023-02-15T00:34:54;1.20;99.90
59025;DHT22;44806;48.008;13.666;2023-02-15T00:37:22;1.20;99.90
59025;DHT22;44806;48.008;13.666;2023-02-15T00:39:55;1.20;99.90
59025;DHT22;44806;48.008;13.666;2023-02-15T00:42:28;1.10;99.90
59025;DHT22;44806;48.008;13.666;2023-02-15T00:44:59;1.20;99.90
59025;DHT22;44806;48.008;13.666;2023-02-15T00:47:31;1.20;99.90
59025;DHT22;44806;48.008;13.666;2023-02-15T00:50:07;1.20;99.90
59025;DHT22;44806;48.008;13.666;2023-02-15T00:52:43;1.20;99.90
59025;DHT22;44806;48.008;13.666;2023-02-15T00:55:16;1.10;99.90
59025;DHT22;44806;48.008;13.666;2023-02-15T00:57:52;1.20;99.90
59025;DHT22;44806;48.008;13.666;2023-02-15T01:00:21;1.20;99.90
59025;DHT22;44806;48.008;13.666;2023-02-15T01:02:49;1.10;99.90
59025;DHT22;44806;48.008;13.666;2023-02-15T01:05:28;1.20;99.90
59025;DHT22;44806;48.008;13.666;2023-02-15T01:07:59;1.20;99.90
59025;DHT22;44806;48.008;13.666;2023-02-15T01:10:27;1.20;99.90
59025;DHT22;44806;48.008;13.666;2023-02-15T01:13:02;1.20;99.90
59025;DHT22;44806;48.008;13.666;2023-02-15T01:15:36;1.20;99.90
59025;DHT22;44806;48.008;13.666;2023-02-15T01:18:06;1.20;99.90
59025;DHT22;44806;48.008;13.666;2023-02-15T01:20:34;1.20;99.90
59025;DHT22;44806;48.008;13.666;2023-02-15T01:23:05;1.20;99.90
59025;DHT22;44806;48.008;13.666;2023-02-15T01:25:36;1.20;99.90
59025;DHT22;44806;48.008;13.666;2023-02-15T01:28:10;1.10;99.90
59025;DHT22;44806;48.008;13.666;2023-02-15T01:30:47;1.10;99.90
59025;DHT22;44806;48.008;13.666;2023-02-15T01:33:23;1.10;99.90
59025;DHT22;44806;48.008;13.666;2023-02-15T01:35:59;0.90;99.90
59025;DHT22;44806;48.008;13.666;2023-02-15T01:38:32;0.60;99.90
59025;DHT22;44806;48.008;13.666;2023-02-15T01:41:07;0.70;99.90
59025;DHT22;44806;48.008;13.666;2023-02-15T01:43:53;0.70;99.90
59025;DHT22;44806;48.008;13.666;2023-02-15T01:46:26;0.60;99.90
59025;DHT22;44806;48.008;13.666;2023-02-15T01:49:03;0.70;99.90
59025;DHT22;44806;48.008;13.666;2023-02-15T01:51:44;0.80;99.90
59025;DHT22;44806;48.008;13.666;2023-02-15T01:54:23;0.80;99.90
59025;DHT22;44806;48.008;13.666;2023-02-15T01:57:02;0.90;99.90
59025;DHT22;44806;48.008;13.666;2023-02-15T01:59:33;0.90;99.90
59025;DHT22;44806;48.008;13.666;2023-02-15T02:02:10;0.90;99.90
59025;DHT22;44806;48.008;13.666;2023-02-15T02:04:47;0.90;99.90
59025;DHT22;44806;48.008;13.666;2023-02-15T02:07:23;1.00;99.90
59025;DHT22;44806;48.008;13.666;2023-02-15T02:10:01;1.00;99.90
59025;DHT22;44806;48.008;13.666;2023-02-15T02:12:37;1.10;99.90
59025;DHT22;44806;48.008;13.666;2023-02-15T02:15:16;1.10;99.90
59025;DHT22;44806;48.008;13.666;2023-02-15T02:17:51;1.10;99.90
59025;DHT22;44806;48.008;13.666;2023-02-15T02:20:38;1.10;99.90
59025;DHT22;44806;48.008;13.666;2023-02-15T02:23:17;1.10;99.90
59025;DHT22;44806;48.008;13.666;2023-02-15T02:28:44;1.00;99.90
59025;DHT22;44806;48.008;13.666;2023-02-15T02:31:26;1.10;99.90
59025;DHT22;44806;48.008;13.666;2023-02-15T02:34:04;1.00;99.90
59025;DHT22;44806;48.008;13.666;2023-02-15T02:36:37;1.10;99.90
59025;DHT22;44806;48.008;13.666;2023-02-15T02:39:16;1.10;99.90
59025;DHT22;44806;48.008;13.666;2023-02-15T02:41:57;1.10;99.90
59025;DHT22;44806;48.008;13.666;2023-02-15T02:44:38;1.10;99.90
59025;DHT22;44806;48.008;13.666;2023-02-15T02:47:22;1.10;99.90
59025;DHT22;44806;48.008;13.666;2023-02-15T02:50:07;1.00;99.90
59025;DHT22;44806;48.008;13.666;2023-02-15T02:52:42;0.90;99.90
59025;DHT22;44806;48.008;13.666;2023-02-15T02:55:20;0.80;99.90
59025;DHT22;44806;48.008;13.666;2023-02-15T02:57:58;0.90;99.90
59025;DHT22;44806;48.008;13.666;2023-02-15T03:00:32;0.90;99.90
59025;DHT22;44806;48.008;13.666;2023-02-15T03:03:07;0.90;99.90
59025;DHT22;44806;48.008;13.666;2023-02-15T03:05:46;0.90;99.90
59025;DHT22;44806;48.008;13.666;2023-02-15T03:08:18;0.90;99.90
59025;DHT22;44806;48.008;13.666;2023-02-15T03:10:59;0.90;99.90
59025;DHT22;44806;48.008;13.666;2023-02-15T03:13:30;0.90;99.90
59025;DHT22;44806;48.008;13.666;2023-02-15T03:16:10;0.90;99.90
59025;DHT22;44806;48.008;13.666;2023-02-15T03:18:58;0.90;99.90
59025;DHT22;44806;48.008;13.666;2023-02-15T03:21:33;0.90;99.90
59025;DHT22;44806;48.008;13.666;2023-02-15T03:24:04;0.90;99.90
59025;DHT22;44806;48.008;13.666;2023-02-15T03:26:45;0.90;99.90
59025;DHT22;44806;48.008;13.666;2023-02-15T03:29:19;1.00;99.90
59025;DHT22;44806;48.008;13.666;2023-02-15T03:31:49;1.00;99.90
59025;DHT22;44806;48.008;13.666;2023-02-15T03:34:28;1.00;99.90
59025;DHT22;44806;48.008;13.666;2023-02-15T03:37:03;1.00;99.90
59025;DHT22;44806;48.008;13.666;2023-02-15T03:39:36;1.00;99.90
59025;DHT22;44806;48.008;13.666;2023-02-15T03:42:11;1.00;99.90
59025;DHT22;44806;48.008;13.666;2023-02-15T03:44:43;1.00;99.90
59025;DHT22;44806;48.008;13.666;2023-02-15T03:47:16;1.00;99.90
59025;DHT22;44806;48.008;13.666;2023-02-15T03:49:53;1.00;99.90
59025;DHT22;44806;48.008;13.666;2023-02-15T03:52:27;1.00;99.90
59025;DHT22;44806;48.008;13.666;2023-02-15T03:55:01;1.00;99.90
59025;DHT22;44806;48.008;13.666;2023-02-15T03:57:32;0.80;99.90
59025;DHT22;44806;48.008;13.666;2023-02-15T04:00:19;0.90;99.90
59025;DHT22;44806;48.008;13.666;2023-02-15T04:03:12;0.90;99.90
59025;DHT22;44806;48.008;13.666;2023-02-15T04:05:53;0.80;99.90
59025;DHT22;44806;48.008;13.666;2023-02-15T04:08:22;0.70;99.90
59025;DHT22;44806;48.008;13.666;2023-02-15T04:11:15;0.70;99.90
59025;DHT22;44806;48.008;13.666;2023-02-15T04:13:42;0.60;99.90
59025;DHT22;44806;48.008;13.666;2023-02-15T04:16:24;0.60;99.90
59025;DHT22;44806;48.008;13.666;2023-02-15T04:18:54;0.50;99.90
59025;DHT22;44806;48.008;13.666;2023-02-15T04:21:39;0.40;99.90
59025;DHT22;44806;48.008;13.666;2023-02-15T04:24:26;0.30;99.90
59025;DHT22;44806;48.008;13.666;2023-02-15T04:27:13;0.40;99.90
59025;DHT22;44806;48.008;13.666;2023-02-15T04:29:51;0.30;99.90
59025;DHT22;44806;48.008;13.666;2023-02-15T04:32:25;0.40;99.90
59025;DHT22;44806;48.008;13.666;2023-02-15T04:34:54;0.40;99.90
59025;DHT22;44806;48.008;13.666;2023-02-15T04:37:29;0.50;99.90
59025;DHT22;44806;48.008;13.666;2023-02-15T04:40:06;0.50;99.90
59025;DHT22;44806;48.008;13.666;2023-02-15T04:42:39;0.60;99.90
59025;DHT22;44806;48.008;13.666;2023-02-15T04:45:21;0.60;99.90
59025;DHT22;44806;48.008;13.666;2023-02-15T04:47:55;0.60;99.90
59025;DHT22;44806;48.008;13.666;2023-02-15T04:50:33;0.70;99.90
59025;DHT22;44806;48.008;13.666;2023-02-15T04:53:11;0.70;99.90
59025;DHT22;44806;48.008;13.666;2023-02-15T04:55:40;0.70;99.90
59025;DHT22;44806;48.008;13.666;2023-02-15T04:58:14;0.70;99.90
59025;DHT22;44806;48.008;13.666;2023-02-15T05:00:46;0.70;99.90
59025;DHT22;44806;48.008;13.666;2023-02-15T05:03:23;0.70;99.90
59025;DHT22;44806;48.008;13.666;2023-02-15T05:06:00;0.80;99.90
59025;DHT22;44806;48.008;13.666;2023-02-15T05:08:30;0.80;99.90
59025;DHT22;44806;48.008;13.666;2023-02-15T05:11:10;0.80;99.90
59025;DHT22;44806;48.008;13.666;2023-02-15T05:13:43;0.80;99.90
59025;DHT22;44806;48.008;13.666;2023-02-15T05:16:13;0.80;99.90
59025;DHT22;44806;48.008;13.666;2023-02-15T05:18:48;0.80;99.90
59025;DHT22;44806;48.008;13.666;2023-02-15T05:21:25;0.80;99.90
59025;DHT22;44806;48.008;13.666;2023-02-15T05:23:56;0.80;99.90
59025;DHT22;44806;48.008;13.666;2023-02-15T05:26:48;0.80;99.90
59025;DHT22;44806;48.008;13.666;2023-02-15T05:29:36;0.90;99.90
59025;DHT22;44806;48.008;13.666;2023-02-15T05:32:07;0.90;99.90
59025;DHT22;44806;48.008;13.666;2023-02-15T05:34:43;0.80;99.90
59025;DHT22;44806;48.008;13.666;2023-02-15T05:37:14;0.90;99.90
59025;DHT22;44806;48.008;13.666;2023-02-15T05:39:45;0.80;99.90
59025;DHT22;44806;48.008;13.666;2023-02-15T05:42:20;0.80;99.90
59025;DHT22;44806;48.008;13.666;2023-02-15T05:44:54;0.80;99.90
59025;DHT22;44806;48.008;13.666;2023-02-15T05:47:30;0.80;99.90
59025;DHT22;44806;48.008;13.666;2023-02-15T05:50:08;0.90;99.90
59025;DHT22;44806;48.008;13.666;2023-02-15T05:52:39;0.80;99.90
59025;DHT22;44806;48.008;13.666;2023-02-15T05:55:09;0.80;99.90
59025;DHT22;44806;48.008;13.666;2023-02-15T05:57:44;0.60;99.90
59025;DHT22;44806;48.008;13.666;2023-02-15T06:00:15;0.60;99.90
59025;DHT22;44806;48.008;13.666;2023-02-15T06:02:46;0.60;99.90
59025;DHT22;44806;48.008;13.666;2023-02-15T06:05:18;0.50;99.90
59025;DHT22;44806;48.008;13.666;2023-02-15T06:07:51;0.60;99.90
59025;DHT22;44806;48.008;13.666;2023-02-15T06:10:21;0.60;99.90
59025;DHT22;44806;48.008;13.666;2023-02-15T06:12:58;0.60;99.90
59025;DHT22;44806;48.008;13.666;2023-02-15T06:15:29;0.50;99.90
59025;DHT22;44806;48.008;13.666;2023-02-15T06:18:05;0.60;99.90
59025;DHT22;44806;48.008;13.666;2023-02-15T06:20:38;0.50;99.90
59025;DHT22;44806;48.008;13.666;2023-02-15T06:23:07;0.50;99.90
59025;DHT22;44806;48.008;13.666;2023-02-15T06:25:41;0.50;99.90
59025;DHT22;44806;48.008;13.666;2023-02-15T06:28:15;0.50;99.90
59025;DHT22;44806;48.008;13.666;2023-02-15T06:30:56;0.50;99.90
59025;DHT22;44806;48.008;13.666;2023-02-15T06:33:34;0.50;99.90
59025;DHT22;44806;48.008;13.666;2023-02-15T06:36:09;0.50;99.90
59025;DHT22;44806;48.008;13.666;2023-02-15T06:38:38;0.50;99.90
59025;DHT22;44806;48.008;13.666;2023-02-15T06:41:11;0.40;99.90
59025;DHT22;44806;48.008;13.666;2023-02-15T06:43:43;0.40;99.90
59025;DHT22;44806;48.008;13.666;2023-02-15T06:46:11;0.40;99.90
59025;DHT22;44806;48.008;13.666;2023-02-15T06:48:45;0.30;99.90
59025;DHT22;44806;48.008;13.666;2023-02-15T06:51:18;0.40;99.90
59025;DHT22;44806;48.008;13.666;2023-02-15T06:53:54;0.40;99.90
59025;DHT22;44806;48.008;13.666;2023-02-15T06:56:27;0.40;99.90
59025;DHT22;44806;48.008;13.666;2023-02-15T06:58:57;0.50;99.90
59025;DHT22;44806;48.008;13.666;2023-02-15T07:01:30;0.50;99.90
59025;DHT22;44806;48.008;13.666;2023-02-15T07:03:58;0.40;99.90
59025;DHT22;44806;48.008;13.666;2023-02-15T07:06:33;0.50;99.90
59025;DHT22;44806;48.008;13.666;2023-02-15T07:09:09;0.50;99.90
59025;DHT22;44806;48.008;13.666;2023-02-15T07:11:43;0.60;99.90
59025;DHT22;44806;48.008;13.666;2023-02-15T07:14:29;0.60;99.90
59025;DHT22;44806;48.008;13.666;2023-02-15T07:17:02;0.60;99.90
59025;DHT22;44806;48.008;13.666;2023-02-15T07:19:34;0.60;99.90
59025;DHT22;44806;48.008;13.666;2023-02-15T07:22:04;0.60;99.90
59025;DHT22;44806;48.008;13.666;2023-02-15T07:24:43;0.60;99.90
59025;DHT22;44806;48.008;13.666;2023-02-15T07:27:11;0.70;99.90
59025;DHT22;44806;48.008;13.666;2023-02-15T07:29:43;0.70;99.90
59025;DHT22;44806;48.008;13.666;2023-02-15T07:32:14;0.70;99.90
59025;DHT22;44806;48.008;13.666;2023-02-15T07:34:41;0.80;99.90
59025;DHT22;44806;48.008;13.666;2023-02-15T07:37:14;0.80;99.90
59025;DHT22;44806;48.008;13.666;2023-02-15T07:39:48;0.80;99.90
59025;DHT22;44806;48.008;13.666;2023-02-15T07:42:21;0.90;99.90
59025;DHT22;44806;48.008;13.666;2023-02-15T07:44:50;0.90;99.90
59025;DHT22;44806;48.008;13.666;2023-02-15T07:47:23;0.80;99.90
59025;DHT22;44806;48.008;13.666;2023-02-15T07:49:56;0.70;99.90
59025;DHT22;44806;48.008;13.666;2023-02-15T07:52:25;0.80;99.90
59025;DHT22;44806;48.008;13.666;2023-02-15T07:54:59;0.80;99.90
59025;DHT22;44806;48.008;13.666;2023-02-15T07:57:28;0.80;99.90
59025;DHT22;44806;48.008;13.666;2023-02-15T08:00:00;0.60;99.90
59025;DHT22;44806;48.008;13.666;2023-02-15T08:02:28;0.60;99.90
59025;DHT22;44806;48.008;13.666;2023-02-15T08:04:57;0.50;99.90
59025;DHT22;44806;48.008;13.666;2023-02-15T08:07:27;0.60;99.90
59025;DHT22;44806;48.008;13.666;2023-02-15T08:09:54;0.50;99.90
59025;DHT22;44806;48.008;13.666;2023-02-15T08:12:25;0.50;99.90
59025;DHT22;44806;48.008;13.666;2023-02-15T08:15:01;0.60;99.90
59025;DHT22;44806;48.008;13.666;2023-02-15T08:17:32;0.70;99.90
59025;DHT22;44806;48.008;13.666;2023-02-15T08:20:06;0.60;99.90
59025;DHT22;44806;48.008;13.666;2023-02-15T08:22:36;0.60;99.90
59025;DHT22;44806;48.008;13.666;2023-02-15T08:25:18;0.60;99.90
59025;DHT22;44806;48.008;13.666;2023-02-15T08:27:48;0.70;99.90
59025;DHT22;44806;48.008;13.666;2023-02-15T08:30:25;0.80;99.90
59025;DHT22;44806;48.008;13.666;2023-02-15T08:32:58;0.90;99.90
59025;DHT22;44806;48.008;13.666;2023-02-15T08:35:29;0.90;99.90
59025;DHT22;44806;48.008;13.666;2023-02-15T08:38:05;1.00;99.90
59025;DHT22;44806;48.008;13.666;2023-02-15T08:40:40;1.00;99.90
59025;DHT22;44806;48.008;13.666;2023-02-15T08:43:09;1.00;99.90
59025;DHT22;44806;48.008;13.666;2023-02-15T08:45:47;1.10;99.90
59025;DHT22;44806;48.008;13.666;2023-02-15T08:48:24;1.00;99.90
59025;DHT22;44806;48.008;13.666;2023-02-15T08:51:03;1.10;99.90
59025;DHT22;44806;48.008;13.666;2023-02-15T08:53:41;1.10;99.90
59025;DHT22;44806;48.008;13.666;2023-02-15T08:56:15;1.10;99.90
59025;DHT22;44806;48.008;13.666;2023-02-15T08:58:49;1.00;99.90
59025;DHT22;44806;48.008;13.666;2023-02-15T09:01:23;0.80;99.90
59025;DHT22;44806;48.008;13.666;2023-02-15T09:03:57;0.90;99.90
59025;DHT22;44806;48.008;13.666;2023-02-15T09:06:28;0.90;99.90
59025;DHT22;44806;48.008;13.666;2023-02-15T09:08:55;0.90;99.90
59025;DHT22;44806;48.008;13.666;2023-02-15T09:11:24;0.90;99.90
59025;DHT22;44806;48.008;13.666;2023-02-15T09:13:58;0.90;99.90
59025;DHT22;44806;48.008;13.666;2023-02-15T09:16:32;0.80;99.90
59025;DHT22;44806;48.008;13.666;2023-02-15T09:19:02;0.80;99.90
59025;DHT22;44806;48.008;13.666;2023-02-15T09:21:34;0.80;99.90
59025;DHT22;44806;48.008;13.666;2023-02-15T09:24:08;0.90;99.90
59025;DHT22;44806;48.008;13.666;2023-02-15T09:26:38;0.90;99.90
59025;DHT22;44806;48.008;13.666;2023-02-15T09:29:11;0.90;99.90
59025;DHT22;44806;48.008;13.666;2023-02-15T09:31:45;0.90;99.90
59025;DHT22;44806;48.008;13.666;2023-02-15T09:34:23;1.00;99.90
59025;DHT22;44806;48.008;13.666;2023-02-15T09:36:58;1.10;99.90
59025;DHT22;44806;48.008;13.666;2023-02-15T09:39:30;1.10;99.90
59025;DHT22;44806;48.008;13.666;2023-02-15T09:42:26;1.20;99.90
59025;DHT22;44806;48.008;13.666;2023-02-15T09:48:07;1.40;99.90
59025;DHT22;44806;48.008;13.666;2023-02-15T09:50:52;1.30;99.90
59025;DHT22;44806;48.008;13.666;2023-02-15T09:53:32;1.40;99.90
59025;DHT22;44806;48.008;13.666;2023-02-15T09:56:12;1.50;99.90
59025;DHT22;44806;48.008;13.666;2023-02-15T09:58:51;1.40;99.90
59025;DHT22;44806;48.008;13.666;2023-02-15T10:01:25;1.50;99.90
59025;DHT22;44806;48.008;13.666;2023-02-15T10:04:10;1.50;99.90
59025;DHT22;44806;48.008;13.666;2023-02-15T10:06:55;1.50;99.90
59025;DHT22;44806;48.008;13.666;2023-02-15T10:09:34;1.60;99.90
59025;DHT22;44806;48.008;13.666;2023-02-15T10:12:14;1.60;99.90
59025;DHT22;44806;48.008;13.666;2023-02-15T10:14:57;1.60;99.90
59025;DHT22;44806;48.008;13.666;2023-02-15T10:17:43;1.80;99.90
59025;DHT22;44806;48.008;13.666;2023-02-15T10:20:19;1.80;99.90
59025;DHT22;44806;48.008;13.666;2023-02-15T10:22:56;1.80;99.90
59025;DHT22;44806;48.008;13.666;2023-02-15T10:25:29;1.80;99.90
59025;DHT22;44806;48.008;13.666;2023-02-15T10:28:14;1.90;99.90
59025;DHT22;44806;48.008;13.666;2023-02-15T10:30:47;2.00;99.90
59025;DHT22;44806;48.008;13.666;2023-02-15T10:33:30;2.00;99.90
59025;DHT22;44806;48.008;13.666;2023-02-15T10:36:11;2.10;99.90
59025;DHT22;44806;48.008;13.666;2023-02-15T10:38:52;2.10;99.90
59025;DHT22;44806;48.008;13.666;2023-02-15T10:41:30;1.90;99.90
59025;DHT22;44806;48.008;13.666;2023-02-15T10:44:10;2.00;99.90
59025;DHT22;44806;48.008;13.666;2023-02-15T10:46:54;2.10;99.90
59025;DHT22;44806;48.008;13.666;2023-02-15T10:49:38;2.20;99.90
59025;DHT22;44806;48.008;13.666;2023-02-15T10:52:20;2.20;99.90
59025;DHT22;44806;48.008;13.666;2023-02-15T10:55:00;2.30;99.90
59025;DHT22;44806;48.008;13.666;2023-02-15T10:57:36;2.30;99.90
59025;DHT22;44806;48.008;13.666;2023-02-15T11:00:15;2.30;99.90
59025;DHT22;44806;48.008;13.666;2023-02-15T11:03:04;2.30;99.90
59025;DHT22;44806;48.008;13.666;2023-02-15T11:05:36;2.30;99.90
59025;DHT22;44806;48.008;13.666;2023-02-15T11:08:12;2.20;99.90
59025;DHT22;44806;48.008;13.666;2023-02-15T11:10:49;2.20;99.90
59025;DHT22;44806;48.008;13.666;2023-02-15T11:13:22;2.30;99.90
59025;DHT22;44806;48.008;13.666;2023-02-15T11:15:54;2.30;99.90
59025;DHT22;44806;48.008;13.666;2023-02-15T11:18:31;2.50;99.90
59025;DHT22;44806;48.008;13.666;2023-02-15T11:21:04;2.50;99.90
59025;DHT22;44806;48.008;13.666;2023-02-15T11:23:43;2.60;99.90
59025;DHT22;44806;48.008;13.666;2023-02-15T11:26:17;2.70;99.90
59025;DHT22;44806;48.008;13.666;2023-02-15T11:28:51;2.60;99.90
59025;DHT22;44806;48.008;13.666;2023-02-15T11:31:24;2.80;99.90
59025;DHT22;44806;48.008;13.666;2023-02-15T11:34:01;2.80;99.90
59025;DHT22;44806;48.008;13.666;2023-02-15T11:36:37;2.90;99.90
59025;DHT22;44806;48.008;13.666;2023-02-15T11:39:18;3.00;99.90
59025;DHT22;44806;48.008;13.666;2023-02-15T11:41:53;3.10;99.90
59025;DHT22;44806;48.008;13.666;2023-02-15T11:44:32;3.10;99.90
59025;DHT22;44806;48.008;13.666;2023-02-15T11:47:10;3.10;99.90
59025;DHT22;44806;48.008;13.666;2023-02-15T11:49:49;3.20;99.90
59025;DHT22;44806;48.008;13.666;2023-02-15T11:52:19;3.30;99.90
59025;DHT22;44806;48.008;13.666;2023-02-15T11:54:50;3.30;99.90
59025;DHT22;44806;48.008;13.666;2023-02-15T11:57:22;3.30;99.90
59025;DHT22;44806;48.008;13.666;2023-02-15T12:00:03;3.20;99.90
59025;DHT22;44806;48.008;13.666;2023-02-15T12:02:33;3.20;99.90
59025;DHT22;44806;48.008;13.666;2023-02-15T12:05:12;3.30;99.90
59025;DHT22;44806;48.008;13.666;2023-02-15T12:07:48;3.30;99.90
59025;DHT22;44806;48.008;13.666;2023-02-15T12:10:19;3.40;99.90
59025;DHT22;44806;48.008;13.666;2023-02-15T12:15:56;3.40;99.90
59025;DHT22;44806;48.008;13.666;2023-02-15T12:18:31;3.40;99.90
59025;DHT22;44806;48.008;13.666;2023-02-15T12:21:02;3.50;99.90
59025;DHT22;44806;48.008;13.666;2023-02-15T12:23:31;3.50;99.90
59025;DHT22;44806;48.008;13.666;2023-02-15T12:25:59;3.60;99.90
59025;DHT22;44806;48.008;13.666;2023-02-15T12:28:32;3.50;99.90
59025;DHT22;44806;48.008;13.666;2023-02-15T12:31:02;3.60;99.90
59025;DHT22;44806;48.008;13.666;2023-02-15T12:33:30;3.60;99.90
59025;DHT22;44806;48.008;13.666;2023-02-15T12:36:03;3.60;99.90
59025;DHT22;44806;48.008;13.666;2023-02-15T12:38:43;3.60;99.90
59025;DHT22;44806;48.008;13.666;2023-02-15T12:41:24;3.60;99.90
59025;DHT22;44806;48.008;13.666;2023-02-15T12:44:04;3.60;99.90
59025;DHT22;44806;48.008;13.666;2023-02-15T12:46:34;3.70;99.90
59025;DHT22;44806;48.008;13.666;2023-02-15T12:49:11;3.70;99.90
59025;DHT22;44806;48.008;13.666;2023-02-15T12:51:48;3.60;99.90
59025;DHT22;44806;48.008;13.666;2023-02-15T12:54:40;3.60;99.90
59025;DHT22;44806;48.008;13.666;2023-02-15T12:57:20;3.50;99.90
59025;DHT22;44806;48.008;13.666;2023-02-15T12:59:52;3.40;99.90
59025;DHT22;44806;48.008;13.666;2023-02-15T13:02:25;3.50;99.90
59025;DHT22;44806;48.008;13.666;2023-02-15T13:05:04;3.60;99.90
59025;DHT22;44806;48.008;13.666;2023-02-15T13:07:47;3.60;99.90
59025;DHT22;44806;48.008;13.666;2023-02-15T13:10:25;3.60;99.90
59025;DHT22;44806;48.008;13.666;2023-02-15T13:12:58;3.70;99.90
59025;DHT22;44806;48.008;13.666;2023-02-15T13:15:31;3.60;99.90
59025;DHT22;44806;48.008;13.666;2023-02-15T13:18:12;3.50;99.90
59025;DHT22;44806;48.008;13.666;2023-02-15T13:20:45;3.50;99.90
59025;DHT22;44806;48.008;13.666;2023-02-15T13:23:19;3.40;99.90
59025;DHT22;44806;48.008;13.666;2023-02-15T13:25:51;3.40;99.90
59025;DHT22;44806;48.008;13.666;2023-02-15T13:28:26;3.50;99.90
59025;DHT22;44806;48.008;13.666;2023-02-15T13:31:07;3.30;99.90
59025;DHT22;44806;48.008;13.666;2023-02-15T13:33:41;3.40;99.90
59025;DHT22;44806;48.008;13.666;2023-02-15T13:36:22;3.40;99.90
59025;DHT22;44806;48.008;13.666;2023-02-15T13:39:04;3.30;99.90
59025;DHT22;44806;48.008;13.666;2023-02-15T13:41:50;3.30;99.90
59025;DHT22;44806;48.008;13.666;2023-02-15T13:44:29;3.30;99.90
59025;DHT22;44806;48.008;13.666;2023-02-15T13:47:08;3.30;99.90
59025;DHT22;44806;48.008;13.666;2023-02-15T13:49:50;3.30;99.90
59025;DHT22;44806;48.008;13.666;2023-02-15T13:52:27;3.40;99.90
59025;DHT22;44806;48.008;13.666;2023-02-15T13:55:25;3.40;99.90
59025;DHT22;44806;48.008;13.666;2023-02-15T13:58:05;3.50;99.90
59025;DHT22;44806;48.008;13.666;2023-02-15T14:00:44;3.50;99.90
59025;DHT22;44806;48.008;13.666;2023-02-15T14:03:28;3.60;99.90
59025;DHT22;44806;48.008;13.666;2023-02-15T14:08:54;3.60;99.90
59025;DHT22;44806;48.008;13.666;2023-02-15T14:11:29;3.70;99.90
59025;DHT22;44806;48.008;13.666;2023-02-15T14:14:09;3.70;99.90
59025;DHT22;44806;48.008;13.666;2023-02-15T14:16:48;3.70;99.90
59025;DHT22;44806;48.008;13.666;2023-02-15T14:19:34;3.60;99.90
59025;DHT22;44806;48.008;13.666;2023-02-15T14:22:19;3.60;99.90
59025;DHT22;44806;48.008;13.666;2023-02-15T14:24:58;3.60;99.90
59025;DHT22;44806;48.008;13.666;2023-02-15T14:27:37;3.40;99.90
59025;DHT22;44806;48.008;13.666;2023-02-15T14:30:13;3.40;99.90
59025;DHT22;44806;48.008;13.666;2023-02-15T14:32:43;3.40;99.90
59025;DHT22;44806;48.008;13.666;2023-02-15T14:35:18;3.30;99.90
59025;DHT22;44806;48.008;13.666;2023-02-15T14:37:47;3.40;99.90
59025;DHT22;44806;48.008;13.666;2023-02-15T14:40:23;3.40;99.90
59025;DHT22;44806;48.008;13.666;2023-02-15T14:43:18;3.30;99.90
59025;DHT22;44806;48.008;13.666;2023-02-15T14:45:52;3.30;99.90
59025;DHT22;44806;48.008;13.666;2023-02-15T14:48:33;3.30;99.90
59025;DHT22;44806;48.008;13.666;2023-02-15T14:51:08;3.30;99.90
59025;DHT22;44806;48.008;13.666;2023-02-15T14:53:39;3.20;99.90
59025;DHT22;44806;48.008;13.666;2023-02-15T14:59:15;3.20;99.90
59025;DHT22;44806;48.008;13.666;2023-02-15T15:02:03;3.30;99.90
59025;DHT22;44806;48.008;13.666;2023-02-15T15:04:34;3.30;99.90
59025;DHT22;44806;48.008;13.666;2023-02-15T15:07:09;3.20;99.90
59025;DHT22;44806;48.008;13.666;2023-02-15T15:10:00;3.20;99.90
59025;DHT22;44806;48.008;13.666;2023-02-15T15:12:45;3.30;99.90
59025;DHT22;44806;48.008;13.666;2023-02-15T15:15:32;3.30;99.90
59025;DHT22;44806;48.008;13.666;2023-02-15T15:18:00;3.40;99.90
59025;DHT22;44806;48.008;13.666;2023-02-15T15:20:39;3.20;99.90
59025;DHT22;44806;48.008;13.666;2023-02-15T15:26:20;3.20;99.90
59025;DHT22;44806;48.008;13.666;2023-02-15T15:28:59;3.10;99.90
59025;DHT22;44806;48.008;13.666;2023-02-15T15:31:45;3.20;99.90
59025;DHT22;44806;48.008;13.666;2023-02-15T15:34:36;3.20;99.90
59025;DHT22;44806;48.008;13.666;2023-02-15T15:37:23;3.10;99.90
59025;DHT22;44806;48.008;13.666;2023-02-15T15:42:51;3.10;99.90
59025;DHT22;44806;48.008;13.666;2023-02-15T15:45:50;3.20;99.90
59025;DHT22;44806;48.008;13.666;2023-02-15T15:51:12;3.20;99.90
59025;DHT22;44806;48.008;13.666;2023-02-15T15:53:48;3.00;99.90
59025;DHT22;44806;48.008;13.666;2023-02-15T15:56:28;3.00;99.90
59025;DHT22;44806;48.008;13.666;2023-02-15T15:59:00;2.90;99.90
59025;DHT22;44806;48.008;13.666;2023-02-15T16:01:35;2.90;99.90
59025;DHT22;44806;48.008;13.666;2023-02-15T16:10:05;2.80;99.90
59025;DHT22;44806;48.008;13.666;2023-02-15T16:12:48;2.80;99.90
59025;DHT22;44806;48.008;13.666;2023-02-15T16:15:31;2.80;99.90
59025;DHT22;44806;48.008;13.666;2023-02-15T16:18:10;2.70;99.90
59025;DHT22;44806;48.008;13.666;2023-02-15T16:20:41;2.70;99.90
59025;DHT22;44806;48.008;13.666;2023-02-15T16:23:16;2.70;99.90
59025;DHT22;44806;48.008;13.666;2023-02-15T16:25:50;2.70;99.90
59025;DHT22;44806;48.008;13.666;2023-02-15T16:28:26;2.60;99.90
59025;DHT22;44806;48.008;13.666;2023-02-15T16:31:07;2.50;99.90
59025;DHT22;44806;48.008;13.666;2023-02-15T16:33:38;2.40;99.90
59025;DHT22;44806;48.008;13.666;2023-02-15T16:36:20;2.30;99.90
59025;DHT22;44806;48.008;13.666;2023-02-15T16:39:12;2.20;99.90
59025;DHT22;44806;48.008;13.666;2023-02-15T16:41:46;2.10;99.90
59025;DHT22;44806;48.008;13.666;2023-02-15T16:44:20;2.10;99.90
59025;DHT22;44806;48.008;13.666;2023-02-15T16:47:04;2.20;99.90
59025;DHT22;44806;48.008;13.666;2023-02-15T16:49:42;2.10;99.90
59025;DHT22;44806;48.008;13.666;2023-02-15T16:52:19;2.00;99.90
59025;DHT22;44806;48.008;13.666;2023-02-15T16:54:51;1.90;99.90